createdAt,value
2018-04-22T00:00:07.447Z,7.60
2018-04-22T00:02:34.336Z,7.17
2018-04-22T00:05:02.008Z,6.70
2018-04-22T00:07:28.925Z,6.67
2018-04-22T00:09:55.836Z,6.87
2018-04-22T00:12:24.006Z,6.93
2018-04-22T00:14:51.625Z,7.37
2018-04-22T00:17:18.532Z,7.17
2018-04-22T00:19:48.219Z,7.30
2018-04-22T00:22:16.390Z,7.13
2018-04-22T00:24:43.293Z,6.47
2018-04-22T00:27:10.193Z,6.93
2018-04-22T00:29:37.810Z,6.40
2018-04-22T00:32:05.178Z,6.13
2018-04-22T00:34:32.520Z,7.93
2018-04-22T00:36:59.429Z,6.90
2018-04-22T00:39:26.328Z,6.40
2018-04-22T00:41:53.739Z,6.63
2018-04-22T00:44:21.766Z,6.57
2018-04-22T00:46:51.979Z,7.13
2018-04-22T00:49:18.905Z,7.33
2018-04-22T00:51:45.793Z,7.07
2018-04-22T00:54:20.895Z,7.10
2018-04-22T00:56:47.808Z,6.83
2018-04-22T00:59:15.079Z,6.47
2018-04-22T01:01:41.956Z,7.60
2018-04-22T01:04:09.581Z,7.63
2018-04-22T01:06:36.455Z,6.10
2018-04-22T01:09:05.749Z,5.73
2018-04-22T01:11:32.649Z,6.73
2018-04-22T01:14:00.872Z,6.27
2018-04-22T01:16:28.936Z,6.60
2018-04-22T01:18:55.835Z,6.83
2018-04-22T01:21:23.957Z,6.97
2018-04-22T01:23:53.988Z,6.60
2018-04-22T01:26:21.621Z,6.70
2018-04-22T01:28:48.499Z,6.07
2018-04-22T01:31:16.543Z,7.13
2018-04-22T01:33:43.876Z,6.70
2018-04-22T01:36:11.153Z,6.77
2018-04-22T01:38:38.095Z,5.77
2018-04-22T01:41:04.976Z,7.20
2018-04-22T01:43:32.872Z,7.53
2018-04-22T01:46:00.955Z,6.73
2018-04-22T01:48:28.665Z,6.60
2018-04-22T01:50:56.297Z,7.13
2018-04-22T01:53:25.122Z,6.97
2018-04-22T01:55:52.776Z,6.90
2018-04-22T01:58:20.424Z,6.67
2018-04-22T02:00:47.755Z,6.90
2018-04-22T02:03:14.649Z,6.57
2018-04-22T02:05:41.524Z,6.20
2018-04-22T02:08:08.416Z,7.27
2018-04-22T02:10:36.562Z,6.40
2018-04-22T02:13:03.679Z,6.53
2018-04-22T02:15:31.313Z,6.60
2018-04-22T02:17:58.239Z,6.50
2018-04-22T02:20:25.129Z,7.20
2018-04-22T02:22:52.081Z,6.47
2018-04-22T02:25:19.025Z,6.70
2018-04-22T02:27:45.908Z,6.60
2018-04-22T02:30:13.932Z,6.67
2018-04-22T02:32:40.803Z,7.00
2018-04-22T02:35:08.257Z,7.30
2018-04-22T02:37:35.625Z,6.27
2018-04-22T02:40:02.510Z,6.47
2018-04-22T02:42:29.394Z,6.50
2018-04-22T02:44:56.381Z,6.93
2018-04-22T02:47:24.420Z,6.93
2018-04-22T02:49:51.800Z,6.13
2018-04-22T02:52:18.689Z,6.90
2018-04-22T02:54:45.567Z,7.23
2018-04-22T02:57:12.512Z,7.33
2018-04-22T02:59:43.051Z,6.37
2018-04-22T03:02:09.948Z,6.73
2018-04-22T03:04:36.821Z,6.73
2018-04-22T03:07:04.196Z,7.07
2018-04-22T03:09:31.083Z,6.87
2018-04-22T03:12:00.148Z,6.43
2018-04-22T03:14:28.400Z,6.73
2018-04-22T03:16:55.288Z,6.53
2018-04-22T03:19:22.183Z,7.47
2018-04-22T03:21:49.069Z,6.70
2018-04-22T03:24:15.976Z,7.13
2018-04-22T03:26:43.824Z,6.47
2018-04-22T03:29:11.297Z,6.97
2018-04-22T03:31:38.193Z,6.60
2018-04-22T03:34:05.070Z,6.53
2018-04-22T03:36:33.248Z,6.17
2018-04-22T03:39:01.083Z,6.27
2018-04-22T03:41:27.985Z,6.87
2018-04-22T03:43:55.433Z,6.50
2018-04-22T03:46:22.364Z,6.63
2018-04-22T03:48:49.299Z,6.70
2018-04-22T03:51:17.280Z,6.37
2018-04-22T03:53:44.147Z,5.90
2018-04-22T03:56:11.021Z,6.60
2018-04-22T03:58:38.948Z,6.17
2018-04-22T04:01:09.239Z,5.87
2018-04-22T04:03:37.044Z,6.23
2018-04-22T04:06:03.923Z,5.97
2018-04-22T04:08:30.799Z,6.50
2018-04-22T04:10:57.680Z,6.40
2018-04-22T04:13:26.863Z,5.27
2018-04-22T04:15:53.771Z,5.40
2018-04-22T04:21:47.396Z,6.00
2018-04-22T04:24:36.108Z,6.53
2018-04-22T04:30:09.008Z,6.83
2018-04-22T04:32:36.614Z,6.80
2018-04-22T04:35:03.960Z,6.53
2018-04-22T04:37:31.822Z,6.13
2018-04-22T04:39:58.681Z,6.37
2018-04-22T04:42:25.544Z,6.63
2018-04-22T04:44:52.403Z,6.20
2018-04-22T04:47:20.108Z,6.80
2018-04-22T04:49:47.840Z,6.17
2018-04-22T04:52:14.739Z,6.53
2018-04-22T04:54:45.576Z,6.60
2018-04-22T04:57:13.188Z,6.00
2018-04-22T04:59:40.135Z,6.03
2018-04-22T05:02:06.997Z,7.30
2018-04-22T05:04:33.855Z,5.93
2018-04-22T05:07:02.036Z,5.53
2018-04-22T05:09:28.896Z,6.37
2018-04-22T05:11:55.788Z,5.57
2018-04-22T05:14:24.055Z,6.50
2018-04-22T05:16:50.883Z,6.70
2018-04-22T05:19:18.099Z,5.80
2018-04-22T05:21:44.993Z,5.73
2018-04-22T05:24:13.705Z,5.80
2018-04-22T05:26:40.579Z,7.00
2018-04-22T05:29:08.203Z,6.30
2018-04-22T05:31:35.084Z,6.17
2018-04-22T05:34:01.951Z,6.33
2018-04-22T05:36:28.961Z,6.57
2018-04-22T05:38:55.819Z,5.83
2018-04-22T05:41:22.676Z,6.03
2018-04-22T05:43:51.084Z,6.60
2018-04-22T05:46:17.936Z,6.10
2018-04-22T05:48:44.868Z,5.57
2018-04-22T05:51:11.725Z,5.70
2018-04-22T05:53:38.611Z,5.70
2018-04-22T05:56:06.228Z,5.50
2018-04-22T05:58:33.832Z,6.07
2018-04-22T06:01:01.542Z,5.63
2018-04-22T06:03:28.488Z,5.37
2018-04-22T06:05:55.356Z,6.03
2018-04-22T06:08:22.240Z,6.53
2018-04-22T06:10:49.100Z,5.90
2018-04-22T06:13:15.995Z,5.97
2018-04-22T06:15:42.852Z,5.03
2018-04-22T06:18:09.719Z,4.57
2018-04-22T06:20:39.132Z,7.47
2018-04-22T06:23:06.091Z,9.53
2018-04-22T06:25:36.112Z,10.53
2018-04-22T06:28:05.336Z,9.10
2018-04-22T06:30:32.181Z,8.47
2018-04-22T06:32:59.060Z,8.60
2018-04-22T06:35:26.689Z,7.60
2018-04-22T06:37:53.895Z,6.90
2018-04-22T06:40:20.817Z,6.53
2018-04-22T06:42:47.768Z,6.80
2018-04-22T06:45:14.955Z,5.20
2018-04-22T06:47:41.808Z,4.67
2018-04-22T06:50:08.780Z,4.57
2018-04-22T06:52:35.644Z,4.97
2018-04-22T06:55:02.648Z,5.00
2018-04-22T06:57:29.532Z,4.43
2018-04-22T06:59:56.395Z,5.07
2018-04-22T07:02:23.271Z,4.83
2018-04-22T07:04:50.208Z,4.67
2018-04-22T07:07:17.072Z,4.40
2018-04-22T07:09:43.960Z,4.33
2018-04-22T07:12:12.472Z,4.50
2018-04-22T07:14:40.364Z,5.07
2018-04-22T07:17:07.259Z,3.73
2018-04-22T07:19:34.154Z,4.60
2018-04-22T07:22:02.058Z,4.40
2018-04-22T07:24:28.947Z,4.50
2018-04-22T07:26:56.496Z,4.20
2018-04-22T07:29:23.401Z,4.50
2018-04-22T07:31:50.259Z,3.77
2018-04-22T07:34:17.264Z,4.37
2018-04-22T07:36:44.183Z,4.43
2018-04-22T07:39:12.514Z,3.90
2018-04-22T07:41:39.427Z,3.77
2018-04-22T07:44:06.311Z,4.83
2018-04-22T07:46:34.333Z,4.87
2018-04-22T07:49:01.248Z,4.77
2018-04-22T07:51:28.739Z,4.57
2018-04-22T07:53:55.643Z,4.20
2018-04-22T07:56:24.416Z,5.93
2018-04-22T07:58:51.341Z,4.87
2018-04-22T08:01:18.955Z,4.60
2018-04-22T08:03:46.532Z,4.37
2018-04-22T08:06:13.483Z,5.40
2018-04-22T08:08:40.360Z,5.60
2018-04-22T08:11:09.005Z,4.97
2018-04-22T08:13:35.872Z,5.07
2018-04-22T08:16:03.408Z,5.57
2018-04-22T08:18:30.699Z,5.43
2018-04-22T08:20:57.636Z,5.63
2018-04-22T08:23:24.528Z,5.73
2018-04-22T08:25:51.503Z,6.23
2018-04-22T08:28:18.860Z,6.13
2018-04-22T08:30:46.488Z,5.17
2018-04-22T08:33:13.474Z,6.10
2018-04-22T08:35:41.529Z,5.63
2018-04-22T08:38:08.457Z,5.60
2018-04-22T08:40:36.236Z,5.60
2018-04-22T08:43:03.137Z,6.20
2018-04-22T08:45:30.013Z,5.57
2018-04-22T08:47:56.924Z,5.63
2018-04-22T08:50:23.808Z,6.27
2018-04-22T08:52:51.919Z,5.70
2018-04-22T08:55:18.877Z,5.70
2018-04-22T08:57:46.788Z,6.27
2018-04-22T09:00:13.758Z,4.83
2018-04-22T09:02:41.504Z,6.20
2018-04-22T09:05:08.867Z,7.10
2018-04-22T09:07:36.473Z,6.50
2018-04-22T09:10:03.369Z,8.33
2018-04-22T09:12:31.617Z,6.33
2018-04-22T09:14:58.508Z,6.00
2018-04-22T09:17:25.876Z,6.07
2018-04-22T09:19:54.593Z,4.97
2018-04-22T09:22:21.461Z,5.83
2018-04-22T09:24:48.920Z,5.77
2018-04-22T09:27:15.839Z,5.80
2018-04-22T09:29:43.104Z,6.33
2018-04-22T09:32:09.982Z,5.60
2018-04-22T09:34:37.583Z,5.60
2018-04-22T09:37:05.747Z,5.50
2018-04-22T09:39:33.771Z,6.23
2018-04-22T09:42:01.571Z,5.07
2018-04-22T09:44:28.448Z,4.50
2018-04-22T09:46:56.081Z,5.70
2018-04-22T09:49:22.984Z,5.87
2018-04-22T09:51:49.945Z,5.63
2018-04-22T09:54:18.600Z,6.03
2018-04-22T09:56:45.479Z,4.97
2018-04-22T09:59:13.172Z,4.80
2018-04-22T10:01:40.120Z,4.37
2018-04-22T10:04:10.003Z,5.30
2018-04-22T10:06:37.692Z,5.23
2018-04-22T10:09:05.523Z,8.37
2018-04-22T10:11:33.189Z,5.73
2018-04-22T10:14:00.068Z,5.23
2018-04-22T10:16:26.980Z,5.90
2018-04-22T10:18:53.927Z,6.13
2018-04-22T10:21:21.576Z,5.37
2018-04-22T10:23:49.830Z,4.90
2018-04-22T10:26:19.393Z,5.03
2018-04-22T10:28:46.265Z,5.57
2018-04-22T10:31:13.517Z,5.57
2018-04-22T10:33:40.381Z,5.87
2018-04-22T10:36:07.354Z,5.10
2018-04-22T10:38:35.395Z,5.93
2018-04-22T10:41:02.260Z,5.53
2018-04-22T10:43:32.651Z,5.43
2018-04-22T10:45:59.916Z,5.70
2018-04-22T10:48:26.779Z,5.93
2018-04-22T10:50:53.692Z,6.07
2018-04-22T10:53:20.708Z,6.77
2018-04-22T10:55:47.912Z,6.87
2018-04-22T10:58:14.781Z,6.70
2018-04-22T11:00:43.727Z,6.63
2018-04-22T11:03:10.621Z,6.80
2018-04-22T11:05:37.488Z,7.33
2018-04-22T11:08:07.023Z,7.03
2018-04-22T11:10:33.892Z,7.77
2018-04-22T11:13:00.756Z,7.43
2018-04-22T11:15:29.359Z,7.83
2018-04-22T11:17:57.155Z,7.13
2018-04-22T11:20:24.039Z,8.83
2018-04-22T11:22:51.663Z,9.33
2018-04-22T11:25:18.528Z,7.70
2018-04-22T11:27:46.156Z,7.97
2018-04-22T11:30:13.099Z,8.37
2018-04-22T11:32:40.380Z,9.07
2018-04-22T11:35:07.998Z,8.07
2018-04-22T11:37:35.201Z,8.60
2018-04-22T11:40:02.852Z,8.80
2018-04-22T11:42:29.721Z,8.40
2018-04-22T11:44:59.491Z,8.70
2018-04-22T11:47:26.356Z,8.67
2018-04-22T11:49:53.956Z,8.37
2018-04-22T11:52:20.843Z,6.83
2018-04-22T11:54:47.707Z,6.60
2018-04-22T11:57:15.708Z,6.93
2018-04-22T11:59:42.577Z,7.60
2018-04-22T12:02:09.854Z,7.10
2018-04-22T12:04:37.499Z,6.77
2018-04-22T12:07:04.752Z,5.90
2018-04-22T12:09:31.640Z,5.80
2018-04-22T12:11:58.501Z,6.07
2018-04-22T12:14:25.392Z,6.43
2018-04-22T12:16:52.711Z,5.43
2018-04-22T12:19:19.680Z,5.83
2018-04-22T12:21:47.664Z,6.07
2018-04-22T12:24:14.539Z,6.67
2018-04-22T12:26:41.504Z,5.70
2018-04-22T12:29:08.442Z,5.87
2018-04-22T12:31:35.636Z,5.90
2018-04-22T12:34:02.507Z,4.90
2018-04-22T12:36:30.156Z,5.20
2018-04-22T12:38:57.031Z,5.30
2018-04-22T12:41:23.925Z,5.07
2018-04-22T12:43:51.285Z,5.50
2018-04-22T12:46:18.144Z,5.63
2018-04-22T12:48:45.016Z,5.63
2018-04-22T12:51:12.504Z,5.37
2018-04-22T12:53:39.411Z,5.37
2018-04-22T12:56:07.045Z,5.57
2018-04-22T12:58:35.195Z,5.50
2018-04-22T13:01:02.137Z,5.03
2018-04-22T13:03:29.812Z,4.30
2018-04-22T13:05:57.585Z,5.23
2018-04-22T13:08:26.453Z,4.57
2018-04-22T13:10:53.347Z,5.60
2018-04-22T13:13:21.244Z,4.87
2018-04-22T13:15:48.131Z,5.17
2018-04-22T13:18:15.436Z,4.87
2018-04-22T13:20:43.259Z,5.63
2018-04-22T13:23:10.153Z,5.40
2018-04-22T13:25:37.016Z,4.90
2018-04-22T13:28:04.384Z,5.17
2018-04-22T13:30:31.809Z,5.27
2018-04-22T13:32:59.003Z,5.60
2018-04-22T13:35:27.652Z,5.47
2018-04-22T13:37:54.518Z,5.20
2018-04-22T13:40:21.380Z,4.77
2018-04-22T13:42:48.403Z,5.07
2018-04-22T13:45:15.284Z,6.47
2018-04-22T13:47:42.920Z,5.33
2018-04-22T13:50:11.439Z,5.00
2018-04-22T13:52:38.643Z,5.00
2018-04-22T13:55:07.342Z,4.50
2018-04-22T13:57:34.504Z,4.87
2018-04-22T14:00:01.383Z,6.40
2018-04-22T14:02:28.245Z,5.23
2018-04-22T14:04:55.674Z,4.73
2018-04-22T14:07:22.591Z,4.33
2018-04-22T14:09:49.467Z,4.80
2018-04-22T14:12:16.608Z,5.23
2018-04-22T14:14:43.476Z,4.57
2018-04-22T14:17:10.364Z,5.90
2018-04-22T14:19:38.435Z,4.67
2018-04-22T14:22:06.054Z,5.77
2018-04-22T14:24:32.924Z,5.43
2018-04-22T14:27:00.275Z,5.37
2018-04-22T14:29:27.893Z,5.20
2018-04-22T14:31:55.452Z,5.00
2018-04-22T14:34:22.326Z,5.27
2018-04-22T14:36:49.394Z,4.70
2018-04-22T14:39:16.280Z,5.60
2018-04-22T14:41:43.288Z,5.60
2018-04-22T14:44:24.423Z,5.80
2018-04-22T14:46:52.533Z,5.50
2018-04-22T14:49:20.482Z,5.63
2018-04-22T14:51:47.355Z,5.70
2018-04-22T14:54:16.064Z,5.10
2018-04-22T14:56:43.981Z,5.77
2018-04-22T14:59:10.864Z,5.87
2018-04-22T15:01:37.832Z,5.60
2018-04-22T15:04:04.720Z,5.30
2018-04-22T15:06:32.704Z,5.73
2018-04-22T15:09:00.036Z,5.13
2018-04-22T15:11:26.923Z,6.60
2018-04-22T15:13:53.801Z,5.90
2018-04-22T15:16:21.739Z,5.77
2018-04-22T15:18:49.648Z,6.03
2018-04-22T15:21:17.504Z,4.93
2018-04-22T15:23:44.382Z,5.50
2018-04-22T15:26:11.253Z,5.27
2018-04-22T15:28:38.124Z,5.37
2018-04-22T15:31:06.079Z,5.23
2018-04-22T15:33:33.859Z,5.03
2018-04-22T15:36:01.632Z,6.33
2018-04-22T15:38:29.647Z,5.40
2018-04-22T15:40:56.523Z,5.50
2018-04-22T15:43:24.244Z,5.40
2018-04-22T15:45:51.107Z,6.00
2018-04-22T15:48:19.544Z,5.60
2018-04-22T15:50:46.420Z,5.57
2018-04-22T15:53:13.851Z,5.20
2018-04-22T15:55:41.216Z,5.77
2018-04-22T15:58:08.166Z,6.20
2018-04-22T16:00:36.181Z,5.67
2018-04-22T16:03:03.096Z,6.27
2018-04-22T16:05:29.980Z,6.27
2018-04-22T16:07:58.256Z,5.90
2018-04-22T16:10:25.168Z,5.33
2018-04-22T16:12:52.427Z,5.57
2018-04-22T16:15:21.284Z,5.27
2018-04-22T16:17:48.195Z,5.30
2018-04-22T16:20:16.078Z,6.07
2018-04-22T16:22:44.467Z,5.73
2018-04-22T16:25:11.361Z,5.60
2018-04-22T16:27:38.227Z,5.53
2018-04-22T16:30:05.440Z,6.20
2018-04-22T16:32:34.281Z,5.07
2018-04-22T16:35:01.140Z,5.27
2018-04-22T16:37:29.936Z,5.47
2018-04-22T16:39:56.809Z,5.37
2018-04-22T16:42:23.683Z,5.57
2018-04-22T16:44:55.278Z,6.77
2018-04-22T16:47:22.159Z,5.53
2018-04-22T16:49:49.055Z,6.13
2018-04-22T16:52:15.944Z,6.70
2018-04-22T16:54:42.814Z,6.67
2018-04-22T16:57:10.369Z,5.57
2018-04-22T16:59:37.263Z,5.93
2018-04-22T17:02:05.689Z,5.97
2018-04-22T17:04:32.609Z,5.70
2018-04-22T17:07:00.338Z,4.90
2018-04-22T17:09:27.956Z,5.73
2018-04-22T17:11:54.883Z,7.37
2018-04-22T17:14:24.212Z,5.63
2018-04-22T17:16:51.103Z,6.77
2018-04-22T17:19:19.261Z,6.40
2018-04-22T17:21:51.021Z,6.37
2018-04-22T17:24:17.885Z,6.10
2018-04-22T17:26:44.781Z,5.07
2018-04-22T17:29:11.720Z,5.77
2018-04-22T17:31:38.617Z,6.07
2018-04-22T17:34:05.932Z,5.87
2018-04-22T17:36:32.791Z,5.67
2018-04-22T17:38:59.743Z,5.70
2018-04-22T17:41:26.609Z,6.40
2018-04-22T17:43:54.060Z,5.50
2018-04-22T17:46:21.464Z,5.53
2018-04-22T17:48:48.533Z,5.67
2018-04-22T17:51:15.844Z,6.17
2018-04-22T17:53:42.788Z,5.43
2018-04-22T17:56:09.704Z,5.67
2018-04-22T17:58:39.253Z,5.23
2018-04-22T18:01:06.123Z,6.53
2018-04-22T18:03:33.652Z,5.77
2018-04-22T18:06:00.528Z,6.17
2018-04-22T18:08:27.416Z,5.90
2018-04-22T18:10:55.640Z,6.20
2018-04-22T18:13:22.544Z,5.37
2018-04-22T18:15:49.808Z,5.83
2018-04-22T18:18:16.752Z,6.33
2018-04-22T18:20:44.455Z,6.13
2018-04-22T18:23:12.296Z,6.27
2018-04-22T18:25:39.157Z,5.60
2018-04-22T18:28:07.636Z,5.57
2018-04-22T18:30:34.495Z,6.00
2018-04-22T18:33:01.355Z,6.23
2018-04-22T18:35:32.879Z,6.07
2018-04-22T18:37:59.727Z,5.93
2018-04-22T18:40:26.654Z,5.90
2018-04-22T18:42:54.843Z,6.63
2018-04-22T18:45:21.714Z,7.47
2018-04-22T18:47:49.728Z,7.07
2018-04-22T18:50:17.827Z,7.23
2018-04-22T18:52:45.240Z,6.83
2018-04-22T18:55:12.120Z,6.50
2018-04-22T18:57:39.004Z,6.60
2018-04-22T19:00:07.532Z,7.13
2018-04-22T19:02:34.395Z,6.77
2018-04-22T19:05:01.661Z,7.83
2018-04-22T19:07:28.524Z,7.13
2018-04-22T19:09:55.392Z,6.70
2018-04-22T19:12:25.653Z,6.90
2018-04-22T19:14:52.526Z,6.40
2018-04-22T19:17:21.979Z,6.90
2018-04-22T19:19:49.504Z,6.87
2018-04-22T19:22:16.372Z,7.37
2018-04-22T19:24:43.256Z,6.40
2018-04-22T19:27:10.200Z,5.67
2018-04-22T19:29:37.196Z,7.13
2018-04-22T19:32:04.073Z,7.53
2018-04-22T19:34:32.368Z,7.13
2018-04-22T19:36:59.267Z,7.80
2018-04-22T19:39:26.133Z,6.43
2018-04-22T19:41:53.028Z,7.20
2018-04-22T19:44:20.018Z,7.30
2018-04-22T19:46:46.950Z,6.70
2018-04-22T19:49:14.199Z,6.90
2018-04-22T19:51:41.076Z,7.27
2018-04-22T19:54:08.595Z,6.90
2018-04-22T19:56:35.468Z,6.67
2018-04-22T19:59:02.632Z,7.50
2018-04-22T20:01:29.512Z,7.70
2018-04-22T20:03:56.404Z,6.43
2018-04-22T20:06:24.352Z,7.30
2018-04-22T20:08:51.228Z,6.47
2018-04-22T20:11:18.273Z,7.47
2018-04-22T20:13:45.221Z,7.57
2018-04-22T20:16:12.092Z,7.40
2018-04-22T20:18:41.360Z,7.13
2018-04-22T20:21:08.248Z,5.93
2018-04-22T20:23:35.552Z,7.13
2018-04-22T20:26:02.461Z,6.90
2018-04-22T20:28:29.363Z,6.37
2018-04-22T20:30:56.280Z,6.93
2018-04-22T20:33:23.537Z,6.60
2018-04-22T20:35:51.204Z,6.70
2018-04-22T20:38:18.076Z,6.37
2018-04-22T20:40:46.164Z,6.30
2018-04-22T20:43:13.083Z,6.33
2018-04-22T20:45:40.706Z,6.07
2018-04-22T20:48:08.049Z,7.37
2018-04-22T20:50:34.915Z,6.10
2018-04-22T20:53:01.808Z,6.00
2018-04-22T20:55:32.390Z,6.90
2018-04-22T20:57:59.256Z,6.87
2018-04-22T21:00:26.218Z,6.13
2018-04-22T21:02:53.101Z,7.03
2018-04-22T21:05:19.978Z,6.10
2018-04-22T21:07:48.004Z,6.50
2018-04-22T21:10:15.512Z,7.00
2018-04-22T21:12:43.445Z,5.67
2018-04-22T21:15:11.101Z,6.77
2018-04-22T21:17:38.481Z,6.03
2018-04-22T21:20:07.156Z,6.77
2018-04-22T21:22:34.052Z,6.60
2018-04-22T21:25:01.388Z,6.23
2018-04-22T21:27:29.044Z,6.17
2018-04-22T21:29:56.677Z,5.43
2018-04-22T21:32:23.947Z,6.87
2018-04-22T21:34:50.840Z,8.33
2018-04-22T21:37:18.331Z,6.90
2018-04-22T21:39:45.291Z,6.67
2018-04-22T21:42:12.567Z,7.43
2018-04-22T21:44:39.492Z,8.17
2018-04-22T21:47:06.465Z,6.63
2018-04-22T21:49:33.775Z,6.40
2018-04-22T21:52:00.657Z,6.60
2018-04-22T21:54:28.211Z,6.67
2018-04-22T21:56:55.583Z,6.40
2018-04-22T21:59:22.492Z,6.73
2018-04-22T22:01:49.717Z,6.63
2018-04-22T22:04:16.600Z,6.17
2018-04-22T22:06:43.620Z,6.73
2018-04-22T22:09:10.529Z,6.50
2018-04-22T22:11:37.808Z,7.00
2018-04-22T22:14:06.309Z,6.23
2018-04-22T22:16:34.280Z,6.30
2018-04-22T22:19:01.262Z,6.40
2018-04-22T22:21:28.185Z,6.57
2018-04-22T22:23:55.527Z,6.70
2018-04-22T22:26:23.001Z,5.80
2018-04-22T22:28:50.636Z,7.80
2018-04-22T22:31:18.177Z,6.43
2018-04-22T22:33:45.069Z,6.37
2018-04-22T22:36:11.949Z,6.83
2018-04-22T22:38:38.876Z,6.47
2018-04-22T22:41:05.756Z,6.63
2018-04-22T22:43:32.637Z,6.83
2018-04-22T22:46:00.561Z,6.33
2018-04-22T22:48:27.448Z,7.30
2018-04-22T22:50:54.361Z,6.10
2018-04-22T22:53:21.321Z,6.60
2018-04-22T22:55:48.205Z,6.77
2018-04-22T22:58:15.132Z,6.80
2018-04-22T23:00:42.036Z,6.20
2018-04-22T23:03:10.850Z,6.37
2018-04-22T23:05:38.460Z,7.43
2018-04-22T23:08:05.353Z,5.63
2018-04-22T23:10:33.470Z,6.23
2018-04-22T23:13:00.356Z,7.70
2018-04-22T23:15:28.487Z,5.97
2018-04-22T23:17:55.564Z,6.30
2018-04-22T23:20:22.468Z,6.63
2018-04-22T23:22:49.371Z,6.20
2018-04-22T23:25:16.244Z,6.20
2018-04-22T23:27:43.157Z,7.13
2018-04-22T23:30:10.428Z,6.63
2018-04-22T23:32:37.296Z,7.37
2018-04-22T23:35:04.873Z,6.43
2018-04-22T23:37:32.468Z,6.17
2018-04-22T23:40:00.428Z,6.73
2018-04-22T23:42:27.312Z,6.63
2018-04-22T23:44:54.184Z,7.07
2018-04-22T23:47:21.080Z,7.37
2018-04-22T23:49:47.965Z,6.90
2018-04-22T23:52:15.364Z,6.20
2018-04-22T23:54:42.236Z,6.43
2018-04-22T23:57:09.143Z,5.83
2018-04-22T23:59:37.265Z,6.73
